createdAt,value
2023-05-04T00:00:29.200Z,43.92
2023-05-04T00:01:29.228Z,43.92
2023-05-04T00:02:29.405Z,43.94
2023-05-04T00:03:29.637Z,43.95
2023-05-04T00:04:29.468Z,43.94
2023-05-04T00:05:29.541Z,43.93
2023-05-04T00:06:29.600Z,43.93
2023-05-04T00:07:29.726Z,43.93
2023-05-04T00:08:29.754Z,43.93
2023-05-04T00:09:29.857Z,43.94
2023-05-04T00:10:29.924Z,43.93
2023-05-04T00:11:30.046Z,43.93
2023-05-04T00:12:30.116Z,43.94
2023-05-04T00:13:30.153Z,43.95
2023-05-04T00:14:30.205Z,43.94
2023-05-04T00:15:37.215Z,43.94
2023-05-04T00:16:30.491Z,43.99
2023-05-04T00:17:30.486Z,43.98
2023-05-04T00:18:30.568Z,43.98
2023-05-04T00:19:30.644Z,43.96
2023-05-04T00:20:30.699Z,43.95
2023-05-04T00:21:30.779Z,43.98
2023-05-04T00:22:30.898Z,43.96
2023-05-04T00:23:30.936Z,43.97
2023-05-04T00:24:31.038Z,43.95
2023-05-04T00:25:31.115Z,43.98
2023-05-04T00:26:31.214Z,43.95
2023-05-04T00:27:31.327Z,43.96
2023-05-04T00:28:31.366Z,43.98
2023-05-04T00:29:31.418Z,43.96
2023-05-04T00:30:31.518Z,43.99
2023-05-04T00:31:31.702Z,43.99
2023-05-04T00:32:31.781Z,43.98
2023-05-04T00:33:31.798Z,43.97
2023-05-04T00:34:31.911Z,43.97
2023-05-04T00:35:31.989Z,43.99
2023-05-04T00:36:32.117Z,43.99
2023-05-04T00:37:32.187Z,43.98
2023-05-04T00:38:32.258Z,44.01
2023-05-04T00:39:32.372Z,44.01
2023-05-04T00:40:32.413Z,44.00
2023-05-04T00:41:32.538Z,43.99
2023-05-04T00:42:32.601Z,43.99
2023-05-04T00:43:32.707Z,43.98
2023-05-04T00:44:32.792Z,44.02
2023-05-04T00:45:32.892Z,44.00
2023-05-04T00:47:54.459Z,43.65
2023-05-04T00:48:55.488Z,44.30
2023-05-04T00:49:55.607Z,44.19
2023-05-04T00:50:55.654Z,44.13
2023-05-04T00:51:55.751Z,44.09
2023-05-04T00:52:55.814Z,44.07
2023-05-04T00:53:55.915Z,44.06
2023-05-04T00:54:56.037Z,44.04
2023-05-04T00:55:56.077Z,44.05
2023-05-04T00:56:56.138Z,44.05
2023-05-04T00:57:56.227Z,44.05
2023-05-04T00:58:56.793Z,44.03
2023-05-04T00:59:56.353Z,44.03
2023-05-04T01:00:56.473Z,44.02
2023-05-04T01:01:56.520Z,44.00
2023-05-04T01:02:56.688Z,44.00
2023-05-04T01:03:56.729Z,44.01
2023-05-04T01:04:56.789Z,44.01
2023-05-04T01:05:56.870Z,44.00
2023-05-04T01:06:56.953Z,44.02
2023-05-04T01:07:57.055Z,44.02
2023-05-04T01:08:57.122Z,44.03
2023-05-04T01:09:57.216Z,44.02
2023-05-04T01:10:57.271Z,44.01
2023-05-04T01:11:57.385Z,44.03
2023-05-04T01:12:57.518Z,44.03
2023-05-04T01:13:57.548Z,44.01
2023-05-04T01:14:57.655Z,44.01
2023-05-04T01:15:57.713Z,44.03
2023-05-04T01:16:57.820Z,44.03
2023-05-04T01:17:57.926Z,44.00
2023-05-04T01:19:05.505Z,44.01
2023-05-04T01:19:58.005Z,44.06
2023-05-04T01:20:58.101Z,44.04
2023-05-04T01:21:58.174Z,44.02
2023-05-04T01:22:58.299Z,44.02
2023-05-04T01:23:58.349Z,44.01
2023-05-04T01:24:58.449Z,44.00
2023-05-04T01:25:58.520Z,44.02
2023-05-04T01:26:58.574Z,44.03
2023-05-04T01:27:58.661Z,44.02
2023-05-04T01:28:58.761Z,44.01
2023-05-04T01:29:58.862Z,43.99
2023-05-04T01:30:58.997Z,44.01
2023-05-04T01:31:59.037Z,44.01
2023-05-04T01:32:59.780Z,44.01
2023-05-04T01:33:59.205Z,44.01
2023-05-04T01:34:59.258Z,44.02
2023-05-04T01:35:59.381Z,44.05
2023-05-04T01:36:59.447Z,44.03
2023-05-04T01:37:59.524Z,44.00
2023-05-04T01:38:59.605Z,44.00
2023-05-04T01:39:59.652Z,44.02
2023-05-04T01:40:59.746Z,44.02
2023-05-04T01:41:59.852Z,44.02
2023-05-04T01:42:59.901Z,44.02
2023-05-04T01:44:00.037Z,44.02
2023-05-04T01:45:00.059Z,44.02
2023-05-04T01:46:00.248Z,44.02
2023-05-04T01:47:00.183Z,44.01
2023-05-04T01:48:00.346Z,44.02
2023-05-04T01:49:00.340Z,44.03
2023-05-04T01:50:07.054Z,44.02
2023-05-04T01:51:00.503Z,44.05
2023-05-04T01:52:00.741Z,44.04
2023-05-04T01:53:00.686Z,44.07
2023-05-04T01:54:00.762Z,44.05
2023-05-04T01:55:00.885Z,44.04
2023-05-04T01:56:00.906Z,44.03
2023-05-04T01:57:01.013Z,44.02
2023-05-04T01:58:01.087Z,44.01
2023-05-04T01:59:01.147Z,44.01
2023-05-04T02:00:01.279Z,44.04
2023-05-04T02:01:01.301Z,44.02
2023-05-04T02:02:01.517Z,44.04
2023-05-04T02:03:01.521Z,44.03
2023-05-04T02:04:01.725Z,44.02
2023-05-04T02:05:01.595Z,44.03
2023-05-04T02:06:01.684Z,44.02
2023-05-04T02:07:01.705Z,44.01
2023-05-04T02:08:01.780Z,44.02
2023-05-04T02:09:01.832Z,44.02
2023-05-04T02:10:02.105Z,44.02
2023-05-04T02:11:02.034Z,44.03
2023-05-04T02:12:02.070Z,44.02
2023-05-04T02:13:02.213Z,44.03
2023-05-04T02:14:02.279Z,44.01
2023-05-04T02:15:02.369Z,44.00
2023-05-04T02:16:02.477Z,44.03
2023-05-04T02:17:02.516Z,44.02
2023-05-04T02:18:02.669Z,44.03
2023-05-04T02:19:02.704Z,44.03
2023-05-04T02:20:02.984Z,44.02
2023-05-04T02:21:09.362Z,44.02
2023-05-04T02:22:02.981Z,44.04
2023-05-04T02:23:03.068Z,44.04
2023-05-04T02:24:03.185Z,44.04
2023-05-04T02:25:03.286Z,44.03
2023-05-04T02:26:03.335Z,44.03
2023-05-04T02:27:03.416Z,44.02
2023-05-04T02:28:03.522Z,44.03
2023-05-04T02:29:03.605Z,44.02
2023-05-04T02:30:03.851Z,44.01
2023-05-04T02:31:03.779Z,44.03
2023-05-04T02:32:03.928Z,44.04
2023-05-04T02:33:03.979Z,44.02
2023-05-04T02:34:04.049Z,44.03
2023-05-04T02:35:04.167Z,44.03
2023-05-04T02:36:04.228Z,44.03
2023-05-04T02:37:07.124Z,44.03
2023-05-04T02:38:04.435Z,44.04
2023-05-04T02:39:04.491Z,44.06
2023-05-04T02:40:04.811Z,44.06
2023-05-04T02:41:04.674Z,44.08
2023-05-04T02:42:04.759Z,44.06
2023-05-04T02:43:04.864Z,44.06
2023-05-04T02:44:04.928Z,44.06
2023-05-04T02:45:05.037Z,44.07
2023-05-04T02:46:05.137Z,44.06
2023-05-04T02:47:05.208Z,44.06
2023-05-04T02:48:05.309Z,44.08
2023-05-04T02:49:05.323Z,44.07
2023-05-04T02:50:05.724Z,44.07
2023-05-04T02:51:05.502Z,44.09
2023-05-04T02:52:12.159Z,44.09
2023-05-04T02:53:05.696Z,44.11
2023-05-04T02:54:05.796Z,44.11
2023-05-04T02:55:05.897Z,44.11
2023-05-04T02:56:05.983Z,44.09
2023-05-04T02:57:06.127Z,44.10
2023-05-04T02:58:06.106Z,44.11
2023-05-04T02:59:06.222Z,44.10
2023-05-04T03:00:06.744Z,44.11
2023-05-04T03:01:06.430Z,44.11
2023-05-04T03:02:06.482Z,44.11
2023-05-04T03:03:06.595Z,44.12
2023-05-04T03:04:06.687Z,44.12
2023-05-04T03:05:06.684Z,44.11
2023-05-04T03:06:06.754Z,44.12
2023-05-04T03:07:06.813Z,44.11
2023-05-04T03:08:06.875Z,44.12
2023-05-04T03:09:06.981Z,44.11
2023-05-04T03:10:07.219Z,44.11
2023-05-04T03:11:07.141Z,44.11
2023-05-04T03:12:07.192Z,44.11
2023-05-04T03:13:07.264Z,44.09
2023-05-04T03:14:07.339Z,44.11
2023-05-04T03:15:07.420Z,44.12
2023-05-04T03:16:07.592Z,44.09
2023-05-04T03:17:07.616Z,44.11
2023-05-04T03:18:07.758Z,44.10
2023-05-04T03:19:07.764Z,44.10
2023-05-04T03:20:08.175Z,44.10
2023-05-04T03:21:07.934Z,44.11
2023-05-04T03:22:08.051Z,44.10
2023-05-04T03:23:14.624Z,44.10
2023-05-04T03:24:08.168Z,44.14
2023-05-04T03:25:08.273Z,44.13
2023-05-04T03:26:08.350Z,44.15
2023-05-04T03:27:08.416Z,44.16
2023-05-04T03:28:08.504Z,44.15
2023-05-04T03:29:08.568Z,44.15
2023-05-04T03:30:08.687Z,44.15
2023-05-04T03:31:08.737Z,44.14
2023-05-04T03:32:08.947Z,44.12
2023-05-04T03:33:08.998Z,44.14
2023-05-04T03:34:08.989Z,44.15
2023-05-04T03:35:09.082Z,44.12
2023-05-04T03:36:09.167Z,44.14
2023-05-04T03:37:09.267Z,44.09
2023-05-04T03:38:09.331Z,44.07
2023-05-04T03:39:09.447Z,44.08
2023-05-04T03:40:09.486Z,44.08
2023-05-04T03:41:09.589Z,44.08
2023-05-04T03:42:09.688Z,44.08
2023-05-04T03:43:09.734Z,44.09
2023-05-04T03:44:09.830Z,44.08
2023-05-04T03:45:09.928Z,44.07
2023-05-04T03:46:10.067Z,44.07
2023-05-04T03:47:10.110Z,44.05
2023-05-04T03:48:10.215Z,44.07
2023-05-04T03:49:10.279Z,44.04
2023-05-04T03:50:10.315Z,44.03
2023-05-04T03:51:10.436Z,44.02
2023-05-04T03:52:10.490Z,44.03
2023-05-04T03:53:10.599Z,44.05
2023-05-04T03:54:17.461Z,44.04
2023-05-04T03:55:11.472Z,44.04
2023-05-04T03:56:10.829Z,44.06
2023-05-04T03:57:10.928Z,44.06
2023-05-04T03:58:10.988Z,44.04
2023-05-04T03:59:11.077Z,44.05
2023-05-04T04:00:11.179Z,44.07
2023-05-04T04:01:11.277Z,44.06
2023-05-04T04:02:11.447Z,44.04
2023-05-04T04:03:11.695Z,44.05
2023-05-04T04:04:11.540Z,44.03
2023-05-04T04:05:11.627Z,44.05
2023-05-04T04:06:11.695Z,44.05
2023-05-04T04:07:11.757Z,44.03
2023-05-04T04:08:11.863Z,44.00
2023-05-04T04:09:11.951Z,44.00
2023-05-04T04:10:12.062Z,43.96
2023-05-04T04:11:12.147Z,43.96
2023-05-04T04:12:12.226Z,43.94
2023-05-04T04:13:12.308Z,43.97
2023-05-04T04:14:12.361Z,43.95
2023-05-04T04:15:12.430Z,43.95
2023-05-04T04:16:12.592Z,43.95
2023-05-04T04:17:12.657Z,43.96
2023-05-04T04:18:12.695Z,43.94
2023-05-04T04:19:12.774Z,43.94
2023-05-04T04:20:12.825Z,43.95
2023-05-04T04:21:12.914Z,43.93
2023-05-04T04:22:13.010Z,43.93
2023-05-04T04:23:13.110Z,43.93
2023-05-04T04:24:13.192Z,43.94
2023-05-04T04:25:19.748Z,43.94
2023-05-04T04:26:13.382Z,43.96
2023-05-04T04:27:13.413Z,43.95
2023-05-04T04:28:13.506Z,43.94
2023-05-04T04:29:13.614Z,43.92
2023-05-04T04:30:13.714Z,43.93
2023-05-04T04:31:13.819Z,43.92
2023-05-04T04:32:14.390Z,43.91
2023-05-04T04:33:13.953Z,43.94
2023-05-04T04:34:14.043Z,43.91
2023-05-04T04:35:14.116Z,43.90
2023-05-04T04:36:14.179Z,43.89
2023-05-04T04:37:14.299Z,43.88
2023-05-04T04:38:14.343Z,43.90
2023-05-04T04:39:14.481Z,43.88
2023-05-04T04:40:14.548Z,43.85
2023-05-04T04:41:14.608Z,43.87
2023-05-04T04:42:14.705Z,43.86
2023-05-04T04:43:14.758Z,43.87
2023-05-04T04:44:14.838Z,43.87
2023-05-04T04:45:14.925Z,43.87
2023-05-04T04:46:15.004Z,43.86
2023-05-04T04:47:15.055Z,43.87
2023-05-04T04:48:15.179Z,43.86
2023-05-04T04:49:15.235Z,43.87
2023-05-04T04:50:15.327Z,43.86
2023-05-04T04:51:15.419Z,43.86
2023-05-04T04:52:15.794Z,43.85
2023-05-04T04:53:15.619Z,43.85
2023-05-04T04:54:15.711Z,43.86
2023-05-04T04:55:15.825Z,43.86
2023-05-04T04:56:22.369Z,43.85
2023-05-04T04:57:15.972Z,43.85
2023-05-04T04:58:16.050Z,43.87
2023-05-04T04:59:16.120Z,43.86
2023-05-04T05:00:16.271Z,43.86
2023-05-04T05:01:16.353Z,43.83
2023-05-04T05:02:16.352Z,43.84
2023-05-04T05:03:16.535Z,43.81
2023-05-04T05:04:16.553Z,43.80
2023-05-04T05:05:16.683Z,43.77
2023-05-04T05:06:16.722Z,43.78
2023-05-04T05:07:16.770Z,43.77
2023-05-04T05:08:16.848Z,43.76
2023-05-04T05:09:16.943Z,43.73
2023-05-04T05:10:17.016Z,43.73
2023-05-04T05:11:17.071Z,43.72
2023-05-04T05:12:17.160Z,43.70
2023-05-04T05:13:17.277Z,43.69
2023-05-04T05:14:17.308Z,43.67
2023-05-04T05:15:17.327Z,43.65
2023-05-04T05:16:17.467Z,43.65
2023-05-04T05:17:17.500Z,43.64
2023-05-04T05:18:17.579Z,43.63
2023-05-04T05:19:17.675Z,43.62
2023-05-04T05:20:17.766Z,43.59
2023-05-04T05:21:17.832Z,43.58
2023-05-04T05:22:17.885Z,43.57
2023-05-04T05:23:18.008Z,43.59
2023-05-04T05:24:18.048Z,43.58
2023-05-04T05:25:18.158Z,43.59
2023-05-04T05:26:18.218Z,43.59
2023-05-04T05:27:24.822Z,43.56
2023-05-04T05:28:18.391Z,43.62
2023-05-04T05:29:18.494Z,43.61
2023-05-04T05:30:18.552Z,43.56
2023-05-04T05:31:18.686Z,43.54
2023-05-04T05:32:18.709Z,43.53
2023-05-04T05:33:18.857Z,43.54
2023-05-04T05:34:18.878Z,43.51
2023-05-04T05:35:18.936Z,43.50
2023-05-04T05:36:19.008Z,43.49
2023-05-04T05:37:19.068Z,43.51
2023-05-04T05:38:19.173Z,43.48
2023-05-04T05:39:19.243Z,43.49
2023-05-04T05:40:19.337Z,43.48
2023-05-04T05:41:19.434Z,43.47
2023-05-04T05:42:19.507Z,43.45
2023-05-04T05:43:19.562Z,43.43
2023-05-04T05:44:19.619Z,43.46
2023-05-04T05:45:19.699Z,43.45
2023-05-04T05:46:19.806Z,43.44
2023-05-04T05:47:19.827Z,43.40
2023-05-04T05:48:19.911Z,43.39
2023-05-04T05:49:19.955Z,43.39
2023-05-04T05:50:20.068Z,43.39
2023-05-04T05:51:20.099Z,43.39
2023-05-04T05:52:20.169Z,43.39
2023-05-04T05:53:20.273Z,37.67
